Branson, MO

7:45 PM CST on February 19, 2017 (GMT -0600)
Branson | | Change Station

Elev 1302 ft 36.53 °N, 93.20 °W | Updated 1 hour ago

Partly Cloudy
Partly Cloudy
64 °F
Feels Like 64 °F
N
12
Wind Variable Wind from SE
Gusts 20 mph

Today
High -- | Low -- °F
--% Chance of Precip.
Yesterday
High -- | Low -- °F
Precip. -- in
Pressure 30.01 in
Visibility 10.0 miles
Clouds Few 2500 ft
Dew Point 55 °F
Humidity 73%
Rainfall 0.00 in
Snow Depth Not available.
6:55 AM 5:57 PM
Last Quarter, 38% visible
METAR KBBG 200045Z 14010G17KT 10SM FEW025 18/13 A3001
Pressure 30.01 in
Visibility 10.0 miles
Clouds Few 2500 ft
Dew Point 55 °F
Humidity 73%
Rainfall 0.00 in
Snow Depth Not available.
6:55 AM 5:57 PM
Last Quarter, 38% visible
METAR KBBG 200045Z 14010G17KT 10SM FEW025 18/13 A3001

Get Your Daily Forecast Email!

Thanks for signing up!

Be on the lookout for a verification email in your inbox.

You'll start receiving the daily forecast at 8 AM.

×

10-Day Weather Forecast

Almanac

Astronomy

Feb. 19, 2017 Rise Set
Actual Time
Civil Twilight
Nautical Twilight
Astronomical Twilight
Moon
Length of Visible Light
Length of Day
Tomorrow will be .
, % of the Moon is Illuminated

Today's Extremes

State Highs State Lows

Community

WunderPhotos

Upload Photos

1,962,540 photos uploaded!

WunderBlog® & News

Nearby

Air Quality

  Air Quality AQ Index Pollutant
Not available.

Snow Depth

Station Depth Elevation

Earthquake Activity

City Distance Mag. Time & Date
Minimum magnitude displayed is 2.5.

Coastal Water Temperatures

Place Temperature

Stations

Nearby Weather Stations

Station Location Temp. Windchill Dew Point Humidity Wind Precip. Elev Updated Type
                   

Watches & Warnings

There are currently no watches in effect.